Time;durP1;ratioP1;P1;durP2;ratioP2;P2;SDS_P1;SDS_P2;PMS_P1;PMS_P2;Temp;Humidity;BMP_temperature;BMP_pressure;BME280_temperature;BME280_humidity;BME280_pressure;Samples;Min_cycle;Max_cycle;Signal;HPM_P1;HPM_P2
2022/11/27 00:01:36;;;;;;;20.97;18.73;;;;;;;1.92;100.00;97915.06;5014811;28;20683;-67
2022/11/27 00:04:02;;;;;;;21.17;18.87;;;;;;;1.86;100.00;97907.88;5032465;28;20194;-67
2022/11/27 00:06:29;;;;;;;20.87;18.60;;;;;;;1.75;100.00;97913.25;5013688;28;20252;-67
2022/11/27 00:08:59;;;;;;;20.63;18.40;;;;;;;1.79;100.00;97904.25;5032392;28;20262;-66
2022/11/27 00:11:26;;;;;;;21.63;18.07;;;;;;;1.82;100.00;97911.72;5016615;28;20185;-65
2022/11/27 00:13:52;;;;;;;22.37;19.63;;;;;;;1.89;100.00;97893.88;5032510;28;20210;-66
2022/11/27 00:16:19;;;;;;;21.43;19.07;;;;;;;1.93;100.00;97896.03;5031952;28;20205;-66
2022/11/27 00:18:44;;;;;;;21.70;19.50;;;;;;;1.97;100.00;97897.34;5032355;28;20658;-66
2022/11/27 00:21:17;;;;;;;25.70;19.77;;;;;;;1.84;100.00;97890.91;5032327;28;20293;-67
2022/11/27 00:23:43;;;;;;;27.67;20.97;;;;;;;1.86;100.00;97901.91;5032715;28;20193;-68
2022/11/27 00:26:09;;;;;;;23.00;20.17;;;;;;;1.76;100.00;97893.41;5032357;28;20261;-67
2022/11/27 00:28:36;;;;;;;30.40;21.27;;;;;;;1.86;100.00;97888.97;5032615;28;20216;-67
2022/11/27 00:31:11;;;;;;;26.83;20.40;;;;;;;1.68;100.00;97891.53;5032455;28;20209;-67
2022/11/27 00:33:36;;;;;;;22.70;19.80;;;;;;;1.72;100.00;97882.53;5032434;28;20181;-67
2022/11/27 00:36:02;;;;;;;25.20;20.03;;;;;;;1.66;100.00;97880.53;5032369;28;20178;-67
2022/11/27 00:38:28;;;;;;;24.20;19.50;;;;;;;1.58;100.00;97881.25;5032609;28;20187;-67
2022/11/27 00:40:53;;;;;;;25.07;19.67;;;;;;;1.64;100.00;97879.84;5032492;28;20244;-67
2022/11/27 00:43:18;;;;;;;22.13;19.67;;;;;;;1.67;100.00;97877.00;5032195;28;20266;-67
2022/11/27 00:45:48;;;;;;;25.13;19.63;;;;;;;1.58;100.00;97870.91;5031995;28;20186;-66
2022/11/27 00:48:13;;;;;;;28.60;18.93;;;;;;;1.59;100.00;97857.03;5032261;28;20603;-67
2022/11/27 00:50:39;;;;;;;25.67;20.70;;;;;;;1.62;100.00;97856.72;5031950;28;20182;-67
2022/11/27 00:53:04;;;;;;;22.87;18.97;;;;;;;1.50;100.00;97857.91;5032164;28;20185;-67
2022/11/27 00:55:30;;;;;;;22.30;19.80;;;;;;;1.44;100.00;97855.06;5032250;28;20211;-67
2022/11/27 00:57:55;;;;;;;22.10;19.73;;;;;;;1.43;100.00;97856.84;5031029;28;20195;-67
2022/11/27 01:00:21;;;;;;;25.17;19.90;;;;;;;1.31;100.00;97844.25;5013084;28;20233;-67
2022/11/27 01:02:47;;;;;;;24.70;19.57;;;;;;;1.22;100.00;97846.75;5032276;28;20193;-67
2022/11/27 01:05:12;;;;;;;29.93;21.47;;;;;;;1.09;100.00;97835.09;5031921;28;20187;-67
2022/11/27 01:07:37;;;;;;;22.27;19.13;;;;;;;1.13;100.00;97836.44;5031939;28;20182;-67
2022/11/27 01:10:03;;;;;;;23.87;20.53;;;;;;;1.05;100.00;97826.84;5032330;28;20197;-66
2022/11/27 01:12:29;;;;;;;25.57;20.77;;;;;;;1.15;100.00;97830.19;5032273;28;20190;-68
2022/11/27 01:14:54;;;;;;;25.93;20.03;;;;;;;1.16;100.00;97829.25;5031388;28;20203;-67
2022/11/27 01:17:19;;;;;;;24.07;18.23;;;;;;;1.09;100.00;97830.75;5014451;28;20549;-67
2022/11/27 01:19:45;;;;;;;23.23;18.67;;;;;;;0.95;100.00;97825.25;5034998;28;20202;-67
2022/11/27 01:22:10;;;;;;;24.20;20.27;;;;;;;0.88;100.00;97819.81;5035689;28;20191;-67
2022/11/27 01:24:35;;;;;;;26.67;20.27;;;;;;;0.99;100.00;97817.06;5035370;28;20195;-66
2022/11/27 01:27:01;;;;;;;26.30;19.60;;;;;;;0.97;100.00;97813.81;5035565;28;20220;-67
2022/11/27 01:29:26;;;;;;;28.90;21.03;;;;;;;0.86;100.00;97819.13;5035621;28;20216;-67
2022/11/27 01:31:51;;;;;;;27.47;20.60;;;;;;;0.89;100.00;97805.97;5035405;28;20556;-67
2022/11/27 01:34:17;;;;;;;26.07;20.00;;;;;;;0.97;100.00;97811.22;5035126;28;20210;-67
2022/11/27 01:36:42;;;;;;;26.33;21.07;;;;;;;1.06;100.00;97814.75;5035362;28;20178;-67
2022/11/27 01:39:14;;;;;;;26.97;20.97;;;;;;;0.99;100.00;97809.31;5035054;28;20186;-67
2022/11/27 01:41:39;;;;;;;28.53;21.47;;;;;;;1.01;100.00;97806.59;5035397;28;20266;-66
2022/11/27 01:44:23;;;;;;;38.37;21.83;;;;;;;0.97;100.00;97802.66;5034118;28;20703;-67
2022/11/27 01:46:55;;;;;;;31.60;20.57;;;;;;;1.03;100.00;97794.38;5035416;28;20190;-67
2022/11/27 01:49:31;;;;;;;25.23;20.53;;;;;;;1.01;100.00;97791.91;5034844;28;20301;-66
2022/11/27 01:52:05;;;;;;;25.50;21.10;;;;;;;0.96;100.00;97796.69;5034849;28;20221;-67
2022/11/27 01:54:37;;;;;;;28.07;20.57;;;;;;;0.98;100.00;97791.41;5034570;28;20671;-67
2022/11/27 01:57:08;;;;;;;22.67;19.20;;;;;;;0.90;100.00;97783.53;5034418;28;20185;-67
2022/11/27 01:59:34;;;;;;;24.23;18.70;;;;;;;0.93;100.00;97778.09;5019789;28;20265;-66
2022/11/27 02:02:01;;;;;;;26.50;18.77;;;;;;;0.99;100.00;97775.78;5034972;28;20203;-66
2022/11/27 02:04:26;;;;;;;26.73;20.07;;;;;;;1.09;100.00;97773.16;5035070;28;20733;-66
2022/11/27 02:06:55;;;;;;;25.67;18.60;;;;;;;1.17;100.00;97781.00;5034323;28;20186;-66
2022/11/27 02:09:20;;;;;;;27.37;18.60;;;;;;;1.17;100.00;97778.41;5034656;28;20685;-67
2022/11/27 02:12:23;;;;;;;23.60;19.60;;;;;;;1.22;100.00;97787.38;5034919;28;20209;-66
2022/11/27 02:15:19;;;;;;;23.77;19.10;;;;;;;1.29;100.00;97781.59;5034458;28;20340;-66
2022/11/27 02:18:09;;;;;;;23.37;18.93;;;;;;;1.28;100.00;97778.22;5034698;28;20687;-66
2022/11/27 02:20:47;;;;;;;24.93;19.43;;;;;;;1.25;100.00;97774.16;5002706;28;20213;-66
2022/11/27 02:23:21;;;;;;;26.37;19.47;;;;;;;1.20;100.00;97771.19;5034550;28;20191;-66
2022/11/27 02:26:19;;;;;;;27.33;17.70;;;;;;;1.25;100.00;97769.00;5019246;28;20201;-67
2022/11/27 02:29:16;;;;;;;23.43;18.33;;;;;;;1.23;100.00;97770.88;5034343;28;20189;-66
2022/11/27 02:31:56;;;;;;;26.23;19.50;;;;;;;1.11;100.00;97763.50;5012016;28;20560;-66
2022/11/27 02:34:30;;;;;;;25.10;18.73;;;;;;;1.09;100.00;97766.22;5023485;28;20206;-66
2022/11/27 02:37:02;;;;;;;30.90;19.90;;;;;;;1.07;100.00;97767.31;5033767;28;20177;-66
2022/11/27 02:39:49;;;;;;;25.27;19.17;;;;;;;1.12;100.00;97771.06;5034118;28;20252;-66
2022/11/27 02:42:18;;;;;;;25.03;18.67;;;;;;;1.13;100.00;97764.97;5033858;28;20171;-65
2022/11/27 02:44:57;;;;;;;25.33;18.93;;;;;;;1.20;100.00;97762.63;5033603;28;20228;-65
2022/11/27 02:47:23;;;;;;;29.90;18.37;;;;;;;1.24;100.00;97769.13;5033808;28;20202;-65
2022/11/27 02:49:51;;;;;;;30.63;18.37;;;;;;;1.14;100.00;97763.19;5017334;28;20214;-65
2022/11/27 02:52:18;;;;;;;23.83;19.17;;;;;;;1.24;100.00;97762.19;5033601;28;20178;-65
2022/11/27 02:54:47;;;;;;;25.07;17.97;;;;;;;1.27;100.00;97760.28;5033684;28;20305;-64
2022/11/27 02:57:14;;;;;;;27.50;18.67;;;;;;;1.33;100.00;97757.13;5032419;28;20203;-65
2022/11/27 02:59:42;;;;;;;24.90;18.57;;;;;;;1.32;100.00;97751.16;5033175;28;20183;-65
2022/11/27 03:02:14;;;;;;;32.57;20.00;;;;;;;1.35;100.00;97752.63;5032041;28;20683;-65
2022/11/27 03:04:49;;;;;;;22.37;18.83;;;;;;;1.33;100.00;97752.78;5033791;28;20237;-65
2022/11/27 03:07:21;;;;;;;25.57;18.23;;;;;;;1.21;100.00;97747.00;5033336;28;20774;-65
2022/11/27 03:09:52;;;;;;;25.37;17.60;;;;;;;1.17;100.00;97748.22;5033941;28;20225;-65
2022/11/27 03:12:17;;;;;;;24.80;18.53;;;;;;;1.23;100.00;97745.06;5032492;28;20249;-65
2022/11/27 03:14:44;;;;;;;25.77;17.63;;;;;;;1.40;100.00;97751.22;5033205;28;20685;-65
2022/11/27 03:17:30;;;;;;;29.17;18.23;;;;;;;1.40;100.00;97742.66;5033650;28;20183;-65
2022/11/27 03:20:22;;;;;;;21.43;16.60;;;;;;;1.23;100.00;97739.09;5032968;28;20175;-65
2022/11/27 03:22:47;;;;;;;26.20;17.67;;;;;;;1.34;100.00;97744.06;5033390;28;20248;-65
2022/11/27 03:25:15;;;;;;;23.60;17.20;;;;;;;1.36;100.00;97749.91;5033438;28;20611;-65
2022/11/27 03:27:51;;;;;;;25.37;16.50;;;;;;;1.31;100.00;97734.03;5033455;28;20228;-65
2022/11/27 03:30:16;;;;;;;21.70;15.97;;;;;;;1.36;100.00;97736.16;5033413;28;20201;-65
2022/11/27 03:32:42;;;;;;;22.10;16.20;;;;;;;1.37;100.00;97717.16;5033341;28;20182;-65
2022/11/27 03:35:10;;;;;;;23.20;17.43;;;;;;;1.33;100.00;97713.25;5033094;28;20213;-65
2022/11/27 03:37:36;;;;;;;22.90;15.70;;;;;;;1.29;100.00;97717.03;5033317;28;20194;-65
2022/11/27 03:40:02;;;;;;;25.57;16.23;;;;;;;1.28;100.00;97718.84;5033500;28;20540;-65
2022/11/27 03:42:58;;;;;;;21.33;14.90;;;;;;;1.31;100.00;97725.47;5032942;28;20198;-65
2022/11/27 03:45:35;;;;;;;21.50;15.93;;;;;;;1.21;100.00;97723.78;5033313;28;20635;-65
2022/11/27 03:48:22;;;;;;;21.63;15.93;;;;;;;1.30;100.00;97721.25;5032950;28;20210;-65
2022/11/27 03:51:09;;;;;;;23.90;16.27;;;;;;;1.32;100.00;97727.09;5018416;28;20269;-65
2022/11/27 03:54:06;;;;;;;23.10;16.03;;;;;;;1.37;100.00;97728.28;5033032;28;20533;-64
2022/11/27 03:56:40;;;;;;;22.10;15.90;;;;;;;1.37;100.00;97736.03;5032664;28;20197;-65
2022/11/27 03:59:38;;;;;;;21.13;16.70;;;;;;;1.40;100.00;97734.91;5032858;28;20189;-64
2022/11/27 04:02:03;;;;;;;19.10;15.63;;;;;;;1.31;100.00;97739.19;5018453;28;20226;-65
2022/11/27 04:04:29;;;;;;;21.40;17.37;;;;;;;1.17;100.00;97729.38;5032808;28;20665;-65
2022/11/27 04:06:54;;;;;;;23.63;17.10;;;;;;;1.25;100.00;97724.28;5032051;28;20182;-65
2022/11/27 04:09:19;;;;;;;24.07;16.90;;;;;;;1.22;100.00;97716.84;5032422;28;20191;-66
2022/11/27 04:11:44;;;;;;;24.27;16.03;;;;;;;1.03;100.00;97709.19;5032942;28;20183;-64
2022/11/27 04:14:10;;;;;;;20.43;15.80;;;;;;;0.96;100.00;97714.09;5032754;28;20740;-65
2022/11/27 04:16:35;;;;;;;18.07;15.70;;;;;;;0.91;100.00;97712.91;5032575;28;20195;-65
2022/11/27 04:19:00;;;;;;;21.17;16.53;;;;;;;1.01;100.00;97722.22;5032142;28;20240;-66
2022/11/27 04:21:26;;;;;;;20.20;16.63;;;;;;;0.81;100.00;97718.13;5032548;28;20213;-65
2022/11/27 04:23:51;;;;;;;23.07;17.67;;;;;;;0.88;100.00;97714.03;5032803;28;20552;-65
2022/11/27 04:26:16;;;;;;;21.90;16.50;;;;;;;0.84;100.00;97713.47;5032361;28;20287;-65
2022/11/27 04:28:42;;;;;;;21.70;16.27;;;;;;;0.77;100.00;97716.78;5014964;28;20189;-65
2022/11/27 04:31:07;;;;;;;19.13;15.77;;;;;;;0.77;100.00;97709.88;5032966;28;20194;-65
2022/11/27 04:33:33;;;;;;;21.57;16.40;;;;;;;0.74;100.00;97711.91;5032330;28;20541;-65
2022/11/27 04:35:58;;;;;;;20.60;16.23;;;;;;;0.70;100.00;97701.06;5032167;28;20206;-65
2022/11/27 04:38:23;;;;;;;20.80;16.37;;;;;;;0.72;100.00;97701.75;5032439;28;20185;-65
2022/11/27 04:40:52;;;;;;;21.13;16.07;;;;;;;0.68;100.00;97692.63;5032088;28;20266;-65
2022/11/27 04:43:18;;;;;;;19.13;15.20;;;;;;;0.57;100.00;97694.59;5032113;28;20187;-65
2022/11/27 04:45:43;;;;;;;20.33;15.67;;;;;;;0.55;100.00;97693.94;5032297;28;20186;-65
2022/11/27 04:48:09;;;;;;;21.63;15.70;;;;;;;0.53;100.00;97688.09;5032397;28;20273;-65
2022/11/27 04:50:34;;;;;;;17.90;15.37;;;;;;;0.49;100.00;97677.25;5032397;28;20189;-65
2022/11/27 04:52:59;;;;;;;23.80;15.40;;;;;;;0.57;100.00;97681.69;5033068;28;20265;-65
2022/11/27 04:55:25;;;;;;;19.50;15.13;;;;;;;0.52;100.00;97689.03;5035748;28;20663;-65
2022/11/27 04:57:50;;;;;;;19.63;14.30;;;;;;;0.55;100.00;97688.78;5017310;28;20277;-65
2022/11/27 05:00:16;;;;;;;17.77;14.77;;;;;;;0.54;100.00;97682.00;5035527;28;20729;-65
2022/11/27 05:02:41;;;;;;;18.67;14.03;;;;;;;0.57;100.00;97690.25;5035836;28;20266;-65
2022/11/27 05:05:07;;;;;;;17.50;14.77;;;;;;;0.51;100.00;97690.81;5035223;28;20592;-65
2022/11/27 05:07:32;;;;;;;17.37;14.67;;;;;;;0.56;100.00;97685.25;5035826;28;20182;-65
2022/11/27 05:09:58;;;;;;;21.83;15.03;;;;;;;0.61;100.00;97681.28;5017986;28;20563;-65
2022/11/27 05:12:23;;;;;;;16.67;14.73;;;;;;;0.41;100.00;97685.69;5035909;28;20183;-65
2022/11/27 05:14:48;;;;;;;17.30;14.67;;;;;;;0.32;100.00;97678.00;5035406;28;20203;-65
2022/11/27 05:17:14;;;;;;;22.13;15.63;;;;;;;0.39;100.00;97674.69;5035278;28;20282;-65
2022/11/27 05:19:39;;;;;;;20.83;15.87;;;;;;;0.35;100.00;97672.53;5035244;28;20628;-65
2022/11/27 05:22:04;;;;;;;16.20;14.47;;;;;;;0.28;100.00;97681.81;5035419;28;20187;-65
2022/11/27 05:24:30;;;;;;;22.93;16.70;;;;;;;0.16;100.00;97676.00;5035623;28;20179;-65
2022/11/27 05:26:56;;;;;;;20.40;15.33;;;;;;;0.20;100.00;97671.38;5035337;28;20550;-66
2022/11/27 05:29:22;;;;;;;19.70;16.07;;;;;;;0.32;100.00;97671.06;5035303;28;20600;-66
2022/11/27 05:31:48;;;;;;;17.07;14.37;;;;;;;0.28;100.00;97669.72;5035367;28;20273;-66
2022/11/27 05:34:13;;;;;;;19.03;14.57;;;;;;;0.20;100.00;97673.94;5034850;28;20572;-65
2022/11/27 05:36:39;;;;;;;15.57;13.43;;;;;;;0.25;100.00;97666.63;5035287;28;20205;-66
2022/11/27 05:39:07;;;;;;;17.43;13.87;;;;;;;0.24;100.00;97667.56;5034688;28;20554;-65
2022/11/27 05:41:33;;;;;;;21.23;13.87;;;;;;;0.22;100.00;97670.28;5034602;28;20535;-66
2022/11/27 05:43:59;;;;;;;21.10;14.13;;;;;;;0.17;100.00;97664.72;5035195;28;20267;-66
2022/11/27 05:46:24;;;;;;;16.00;13.70;;;;;;;0.22;100.00;97662.56;5017229;28;20179;-66
2022/11/27 05:48:49;;;;;;;19.87;13.03;;;;;;;0.28;100.00;97666.34;5034757;28;20190;-65
2022/11/27 05:51:15;;;;;;;15.87;14.17;;;;;;;0.29;100.00;97662.78;5035081;28;20194;-66
2022/11/27 05:53:41;;;;;;;14.70;13.10;;;;;;;0.21;100.00;97663.50;5034929;28;20241;-65
2022/11/27 05:56:13;;;;;;;15.60;13.77;;;;;;;0.13;100.00;97672.88;5035081;28;20182;-66
2022/11/27 05:58:41;;;;;;;14.43;12.93;;;;;;;0.04;100.00;97687.41;5034901;28;20262;-65
2022/11/27 06:01:08;;;;;;;15.40;13.27;;;;;;;-0.05;100.00;97678.75;5034098;28;20574;-65
2022/11/27 06:03:33;;;;;;;16.53;13.20;;;;;;;0.06;100.00;97685.50;5034865;28;20258;-65
2022/11/27 06:06:04;;;;;;;16.50;12.67;;;;;;;0.14;100.00;97680.47;5033367;28;20698;-66
2022/11/27 06:08:30;;;;;;;13.73;11.93;;;;;;;0.17;100.00;97682.75;5035031;28;20202;-66
2022/11/27 06:10:55;;;;;;;16.77;11.97;;;;;;;0.25;100.00;97687.22;5016834;28;20221;-66
2022/11/27 06:13:20;;;;;;;14.83;13.03;;;;;;;0.31;100.00;97682.34;5034703;28;20187;-66
2022/11/27 06:15:46;;;;;;;16.70;13.20;;;;;;;0.22;100.00;97683.19;5034941;28;20222;-66
2022/11/27 06:18:11;;;;;;;14.50;12.93;;;;;;;0.29;100.00;97678.25;5034922;28;20186;-66
2022/11/27 06:20:37;;;;;;;15.70;12.57;;;;;;;0.34;100.00;97676.88;5034712;28;20544;-66
2022/11/27 06:23:02;;;;;;;14.27;12.77;;;;;;;0.23;100.00;97673.66;5034345;28;20662;-66
2022/11/27 06:25:27;;;;;;;14.60;12.40;;;;;;;0.23;100.00;97676.25;5034355;28;20237;-66
2022/11/27 06:27:53;;;;;;;14.37;11.60;;;;;;;0.41;100.00;97674.56;5034015;28;20321;-66
2022/11/27 06:30:18;;;;;;;13.87;12.43;;;;;;;0.35;100.00;97681.09;5034472;28;20673;-66
2022/11/27 06:32:43;;;;;;;12.77;10.80;;;;;;;0.46;100.00;97674.13;5033706;28;20601;-66
2022/11/27 06:35:09;;;;;;;14.10;11.10;;;;;;;0.46;100.00;97680.09;5033876;28;20213;-66
2022/11/27 06:37:35;;;;;;;12.63;10.90;;;;;;;0.54;100.00;97682.00;5033940;28;20189;-65
2022/11/27 06:40:00;;;;;;;12.53;11.20;;;;;;;0.58;100.00;97688.47;5034388;28;20190;-66
2022/11/27 06:42:29;;;;;;;13.57;10.80;;;;;;;0.76;100.00;97686.78;5033843;28;20229;-66
2022/11/27 06:44:55;;;;;;;14.17;11.77;;;;;;;0.70;100.00;97679.59;5016242;28;20194;-66
2022/11/27 06:47:20;;;;;;;12.90;11.63;;;;;;;0.72;100.00;97675.13;5016349;28;20238;-67
2022/11/27 06:49:45;;;;;;;18.70;11.83;;;;;;;0.75;100.00;97675.66;5034271;28;20233;-66
2022/11/27 06:52:11;;;;;;;13.93;11.63;;;;;;;0.86;100.00;97669.47;5033813;28;20719;-66
2022/11/27 06:54:36;;;;;;;18.90;12.57;;;;;;;0.92;100.00;97661.16;5033937;28;20226;-66
2022/11/27 06:57:01;;;;;;;15.40;11.63;;;;;;;0.83;100.00;97659.47;5033296;28;20221;-65
2022/11/27 06:59:27;;;;;;;14.87;12.77;;;;;;;0.72;100.00;97657.88;5034428;28;20185;-66
2022/11/27 07:01:52;;;;;;;17.23;13.53;;;;;;;0.63;100.00;97660.50;5032904;28;20237;-67
2022/11/27 07:04:17;;;;;;;17.87;14.17;;;;;;;0.74;100.00;97655.97;5033651;28;20187;-63
2022/11/27 07:06:43;;;;;;;16.03;14.30;;;;;;;0.96;100.00;97651.34;5033597;28;20245;-68
2022/11/27 07:09:08;;;;;;;17.13;13.83;;;;;;;1.06;100.00;97652.91;5033314;28;20241;-66
2022/11/27 07:11:34;;;;;;;16.70;13.10;;;;;;;1.27;100.00;97654.44;5033342;28;20187;-65
2022/11/27 07:14:01;;;;;;;18.50;13.07;;;;;;;1.44;100.00;97651.03;5033673;28;20539;-66
2022/11/27 07:16:29;;;;;;;15.83;13.77;;;;;;;1.59;100.00;97657.28;5032924;28;20639;-65
2022/11/27 07:18:57;;;;;;;18.20;13.93;;;;;;;1.36;100.00;97661.28;5033080;28;20201;-65
2022/11/27 07:21:23;;;;;;;17.17;14.43;;;;;;;1.39;100.00;97658.41;5033003;28;20368;-65
2022/11/27 07:23:49;;;;;;;18.33;14.87;;;;;;;1.41;100.00;97662.47;5033086;28;20270;-65
2022/11/27 07:26:17;;;;;;;20.27;13.43;;;;;;;1.24;100.00;97653.75;5033427;28;20221;-62
2022/11/27 07:28:44;;;;;;;18.87;13.57;;;;;;;1.22;100.00;97641.97;5033411;28;20210;-63
2022/11/27 07:31:11;;;;;;;15.93;14.07;;;;;;;1.20;100.00;97641.28;5033022;28;20522;-65
2022/11/27 07:33:36;;;;;;;17.50;15.10;;;;;;;1.18;100.00;97632.88;5033013;28;20225;-63
2022/11/27 07:36:11;;;;;;;21.37;15.43;;;;;;;1.39;100.00;97623.09;5033118;28;20555;-63
2022/11/27 07:38:36;;;;;;;20.13;16.23;;;;;;;1.29;100.00;97616.34;5033331;28;20225;-63
2022/11/27 07:41:03;;;;;;;19.23;15.57;;;;;;;1.15;100.00;97618.50;5032824;28;20671;-65
2022/11/27 07:43:29;;;;;;;19.47;15.20;;;;;;;1.10;100.00;97612.97;5032669;28;20543;-64
2022/11/27 07:45:54;;;;;;;14.50;13.10;;;;;;;0.83;100.00;97606.09;5032726;28;20175;-65
2022/11/27 07:48:20;;;;;;;14.13;12.73;;;;;;;1.30;100.00;97599.91;5032313;28;20182;-64
2022/11/27 07:50:45;;;;;;;13.80;12.40;;;;;;;2.29;100.00;97601.22;5033103;28;20190;-76
2022/11/27 07:53:11;;;;;;;13.83;11.67;;;;;;;1.64;100.00;97609.38;5032555;28;20678;-66
2022/11/27 07:55:38;;;;;;;14.60;11.17;;;;;;;1.21;100.00;97602.44;5032742;28;20206;-65
2022/11/27 07:58:03;;;;;;;12.67;11.47;;;;;;;0.97;100.00;97588.47;5031383;28;20191;-67
2022/11/27 08:00:28;;;;;;;12.37;11.10;;;;;;;0.83;100.00;97598.34;5032454;28;20222;-66
2022/11/27 08:02:53;;;;;;;11.60;10.50;;;;;;;0.87;100.00;97600.63;5032059;28;20174;-66
2022/11/27 08:05:19;;;;;;;12.13;10.33;;;;;;;0.66;100.00;97595.75;5032789;28;20186;-66
2022/11/27 08:07:44;;;;;;;11.77;10.37;;;;;;;0.55;100.00;97589.00;5032121;28;20174;-66
2022/11/27 08:10:10;;;;;;;10.90;9.90;;;;;;;0.63;100.00;97586.50;5032615;28;20194;-67
2022/11/27 08:12:35;;;;;;;11.50;10.33;;;;;;;0.48;100.00;97598.28;5033234;28;20174;-67
2022/11/27 08:15:03;;;;;;;10.70;9.80;;;;;;;0.57;100.00;97594.81;5031454;28;20217;-68
2022/11/27 08:17:28;;;;;;;20.53;19.03;;;;;;;0.49;100.00;97612.78;5031498;28;20190;-68
2022/11/27 08:19:53;;;;;;;18.97;17.13;;;;;;;0.49;100.00;97609.41;5031631;28;20182;-69
2022/11/27 08:22:19;;;;;;;15.03;13.87;;;;;;;0.70;100.00;97594.47;5032281;28;20187;-68
2022/11/27 08:24:46;;;;;;;12.07;10.50;;;;;;;0.68;100.00;97591.22;5032850;28;20201;-68
2022/11/27 08:27:12;;;;;;;12.07;10.87;;;;;;;0.72;100.00;97587.41;5032546;28;20190;-68
2022/11/27 08:29:37;;;;;;;12.13;10.87;;;;;;;0.89;100.00;97580.66;5036425;28;20580;-68
2022/11/27 08:32:04;;;;;;;12.07;10.87;;;;;;;0.82;100.00;97581.25;5036713;28;20237;-67
2022/11/27 08:34:29;;;;;;;11.90;10.70;;;;;;;1.05;100.00;97581.63;5036167;28;20206;-67
2022/11/27 08:36:55;;;;;;;12.17;11.03;;;;;;;1.22;100.00;97583.41;5036404;28;20193;-67
2022/11/27 08:39:20;;;;;;;12.33;10.73;;;;;;;1.57;100.00;97579.13;5036471;28;20186;-67
2022/11/27 08:41:46;;;;;;;11.60;10.60;;;;;;;1.57;100.00;97568.78;5036253;28;20213;-67
2022/11/27 08:44:11;;;;;;;11.37;10.17;;;;;;;1.62;100.00;97567.38;5036629;28;20291;-65
2022/11/27 08:46:36;;;;;;;12.77;9.70;;;;;;;1.64;100.00;97569.81;5011068;28;20183;-67
2022/11/27 08:49:02;;;;;;;9.73;8.67;;;;;;;1.86;100.00;97573.69;5033091;28;20194;-67
2022/11/27 08:51:27;;;;;;;10.10;9.13;;;;;;;2.27;100.00;97572.94;5036667;28;20269;-69
2022/11/27 08:53:53;;;;;;;10.60;9.60;;;;;;;2.64;100.00;97569.19;5036237;28;20206;-67
2022/11/27 08:56:21;;;;;;;10.57;9.47;;;;;;;2.73;100.00;97563.06;5035155;28;20208;-66
2022/11/27 08:58:46;;;;;;;9.93;8.93;;;;;;;2.78;100.00;97563.41;5035640;28;20261;-65
2022/11/27 09:01:18;;;;;;;9.13;8.30;;;;;;;3.00;100.00;97562.00;5034291;28;20341;-64
2022/11/27 09:03:43;;;;;;;8.67;7.87;;;;;;;3.05;100.00;97549.38;5035607;28;20182;-65
2022/11/27 09:06:11;;;;;;;9.20;7.37;;;;;;;3.63;100.00;97546.59;5035656;28;20186;-64
2022/11/27 09:08:37;;;;;;;8.17;7.37;;;;;;;3.91;100.00;97547.84;5018335;28;20210;-64
2022/11/27 09:11:04;;;;;;;8.70;7.80;;;;;;;3.88;100.00;97544.78;5035709;28;20189;-65
2022/11/27 09:13:29;;;;;;;8.80;7.90;;;;;;;4.22;100.00;97547.94;5036065;28;20193;-65
2022/11/27 09:15:56;;;;;;;10.03;9.03;;;;;;;4.41;100.00;97547.50;5035795;28;20203;-64
2022/11/27 09:18:22;;;;;;;9.07;7.93;;;;;;;4.47;100.00;97548.63;5035669;28;20193;-63
2022/11/27 09:21:20;;;;;;;8.47;7.27;;;;;;;4.53;100.00;97543.56;5035701;28;20195;-64
2022/11/27 09:23:46;;;;;;;8.13;7.03;;;;;;;4.64;100.00;97552.75;4977969;28;20690;-65
2022/11/27 09:26:14;;;;;;;7.90;7.07;;;;;;;4.88;100.00;97557.00;5035637;28;20270;-65
2022/11/27 09:28:41;;;;;;;8.60;7.80;;;;;;;4.76;100.00;97553.19;5035414;28;20194;-64
2022/11/27 09:31:08;;;;;;;11.47;10.53;;;;;;;4.56;100.00;97563.19;5035298;28;20536;-63
2022/11/27 09:33:37;;;;;;;8.30;7.53;;;;;;;4.45;100.00;97559.19;5020609;28;20718;-61
2022/11/27 09:36:08;;;;;;;6.87;6.30;;;;;;;4.47;100.00;97548.63;5034973;28;20207;-61
2022/11/27 09:38:34;;;;;;;7.83;7.17;;;;;;;4.52;100.00;97541.13;5034877;28;20248;-63
2022/11/27 09:41:13;;;;;;;7.80;7.10;;;;;;;4.46;100.00;97537.44;5034875;28;20190;-62
2022/11/27 09:43:48;;;;;;;8.50;7.70;;;;;;;4.59;100.00;97518.72;5021116;28;20185;-63
2022/11/27 09:46:24;;;;;;;9.07;8.27;;;;;;;4.44;100.00;97521.22;5035274;28;20186;-64
2022/11/27 09:48:50;;;;;;;9.53;8.63;;;;;;;4.42;100.00;97533.56;5035225;28;20210;-64
2022/11/27 09:51:45;;;;;;;9.77;8.87;;;;;;;4.35;100.00;97542.19;5035020;28;20237;-67
2022/11/27 09:54:19;;;;;;;9.13;7.87;;;;;;;4.14;100.00;97540.97;5034574;28;20198;-65
2022/11/27 09:56:49;;;;;;;10.70;9.63;;;;;;;4.31;100.00;97520.16;5034184;28;20193;-66
2022/11/27 09:59:17;;;;;;;9.70;8.73;;;;;;;4.17;100.00;97521.69;5034948;28;20571;-68
2022/11/27 10:01:43;;;;;;;9.17;8.37;;;;;;;4.49;100.00;97518.94;5034745;28;20218;-66
2022/11/27 10:04:11;;;;;;;9.83;8.93;;;;;;;4.37;100.00;97511.69;5034949;28;20233;-65
2022/11/27 10:06:55;;;;;;;8.40;7.50;;;;;;;4.57;100.00;97500.72;5034450;28;20209;-66
2022/11/27 10:09:23;;;;;;;9.63;8.63;;;;;;;4.67;100.00;97499.69;5034979;28;20182;-66
2022/11/27 10:12:03;;;;;;;9.83;8.93;;;;;;;4.74;100.00;97495.41;5033011;28;20240;-66
2022/11/27 10:14:41;;;;;;;9.13;8.23;;;;;;;4.48;100.00;97500.94;5018930;28;20190;-67
2022/11/27 10:17:21;;;;;;;9.90;8.90;;;;;;;4.48;100.00;97495.75;5034632;28;20183;-66
2022/11/27 10:19:59;;;;;;;11.50;10.40;;;;;;;4.46;100.00;97488.13;5034948;28;20187;-67
2022/11/27 10:22:54;;;;;;;9.97;9.03;;;;;;;4.36;100.00;97471.13;5017938;28;20191;-66
2022/11/27 10:25:23;;;;;;;11.03;9.93;;;;;;;4.29;100.00;97468.41;5009741;28;20225;-66
2022/11/27 10:27:54;;;;;;;11.30;10.03;;;;;;;4.09;100.00;97478.41;5033921;28;20197;-67
2022/11/27 10:30:20;;;;;;;10.60;9.50;;;;;;;3.81;100.00;97490.19;5034531;28;20187;-68
2022/11/27 10:32:51;;;;;;;12.23;11.17;;;;;;;3.71;100.00;97486.97;5033781;28;20183;-67
2022/11/27 10:35:20;;;;;;;10.90;9.90;;;;;;;3.73;100.00;97479.84;5034796;28;20186;-69
2022/11/27 10:37:51;;;;;;;11.63;10.50;;;;;;;4.02;100.00;97474.06;5033804;28;20613;-67
2022/11/27 10:40:33;;;;;;;11.50;10.17;;;;;;;4.03;100.00;97480.88;5016240;28;20240;-67
2022/11/27 10:43:27;;;;;;;11.83;10.80;;;;;;;3.88;100.00;97483.38;5034289;28;20213;-66
2022/11/27 10:45:55;;;;;;;10.43;9.40;;;;;;;4.14;100.00;97478.72;4986419;28;20659;-66
2022/11/27 10:48:21;;;;;;;9.67;8.77;;;;;;;4.13;100.00;97474.50;5031466;28;20197;-66
2022/11/27 10:50:46;;;;;;;10.80;9.33;;;;;;;4.21;100.00;97472.84;5033145;28;20650;-67
2022/11/27 10:53:22;;;;;;;10.33;8.87;;;;;;;4.19;100.00;97460.84;5016002;28;20269;-63
2022/11/27 10:56:12;;;;;;;10.53;9.43;;;;;;;4.40;100.00;97454.28;5033442;28;20202;-66
2022/11/27 10:59:25;;;;;;;11.23;10.23;;;;;;;4.45;100.00;97447.59;5030505;28;20174;-69
2022/11/27 11:01:54;;;;;;;10.30;9.30;;;;;;;4.42;100.00;97449.69;4997315;28;20569;-64
2022/11/27 11:04:21;;;;;;;9.77;8.23;;;;;;;4.63;100.00;97444.69;5024795;28;20245;-64
2022/11/27 11:06:49;;;;;;;8.40;7.43;;;;;;;4.69;100.00;97438.81;5030657;28;20690;-66
2022/11/27 11:09:27;;;;;;;9.40;7.53;;;;;;;4.93;100.00;97438.63;5033157;28;20755;-64
2022/11/27 11:12:05;;;;;;;7.77;7.17;;;;;;;4.74;100.00;97431.31;5033922;28;20178;-64
2022/11/27 11:14:30;;;;;;;8.37;6.70;;;;;;;4.76;100.00;97418.97;5024167;28;20207;-65
2022/11/27 11:16:55;;;;;;;7.57;6.97;;;;;;;4.89;100.00;97424.41;5021556;28;20201;-65
2022/11/27 11:19:29;;;;;;;7.87;7.07;;;;;;;4.95;100.00;97404.72;5027915;28;20188;-65
2022/11/27 11:21:55;;;;;;;6.97;6.40;;;;;;;5.23;100.00;97404.94;5029228;28;20191;-64
2022/11/27 11:24:30;;;;;;;7.83;7.13;;;;;;;5.26;100.00;97396.78;5032746;28;20175;-64
2022/11/27 11:27:21;;;;;;;7.37;6.67;;;;;;;5.18;99.08;97386.47;5033550;28;20182;-64
2022/11/27 11:29:54;;;;;;;7.77;7.27;;;;;;;5.36;97.64;97382.53;5024073;28;20670;-64